North Granville, New York
Current Conditions -  °F | °C
As of 12:53 PM on Sunday 23 Nov 2014 (Local Time) from KGFL Reporting Station
Few Clouds Few Clouds  
Wind Chill: 51°   Ceiling: Unl
Heat Index: 51°   Visibility: 10mi
Dew Point: 36°   Wind: 5mph
Humidity: 56%   Direction: 190°S
Pressure: 30.08"   Gusts: NA
Location:  43.45°N, 73.34°W
Report Text: KGFL 231753Z AUTO 19004KT 10SM FEW031 11/02 A3008 RMK AO2 SLP192 T01060022 10106 20022 56015
Loading
Personal Weather Stations






























Interactive Weather Map New forecast layout! Learn more

10-Day Weather Forecast

Advertisements
Track Severe Weather on mobile